sensor_id;sensor_type;location;lat;lon;timestamp;temperature;humidity
33827;DHT22;20128;45.582;5.298;2023-05-09T00:01:10;18.70;77.50
33827;DHT22;20128;45.582;5.298;2023-05-09T00:03:37;18.70;77.60
33827;DHT22;20128;45.582;5.298;2023-05-09T00:06:04;18.70;77.40
33827;DHT22;20128;45.582;5.298;2023-05-09T00:08:29;18.60;77.50
33827;DHT22;20128;45.582;5.298;2023-05-09T00:10:55;18.70;77.60
33827;DHT22;20128;45.582;5.298;2023-05-09T00:13:21;18.70;77.40
33827;DHT22;20128;45.582;5.298;2023-05-09T00:15:48;18.80;77.50
33827;DHT22;20128;45.582;5.298;2023-05-09T00:18:13;18.80;77.40
33827;DHT22;20128;45.582;5.298;2023-05-09T00:20:39;18.80;77.30
33827;DHT22;20128;45.582;5.298;2023-05-09T00:23:06;18.80;77.20
33827;DHT22;20128;45.582;5.298;2023-05-09T00:25:32;18.80;77.10
33827;DHT22;20128;45.582;5.298;2023-05-09T00:27:57;18.80;77.20
33827;DHT22;20128;45.582;5.298;2023-05-09T00:30:23;18.80;77.30
33827;DHT22;20128;45.582;5.298;2023-05-09T00:32:49;18.70;77.30
33827;DHT22;20128;45.582;5.298;2023-05-09T00:35:15;18.70;77.60
33827;DHT22;20128;45.582;5.298;2023-05-09T00:37:41;18.60;77.70
33827;DHT22;20128;45.582;5.298;2023-05-09T00:40:07;18.60;77.80
33827;DHT22;20128;45.582;5.298;2023-05-09T00:42:34;18.50;78.40
33827;DHT22;20128;45.582;5.298;2023-05-09T00:45:00;18.50;78.00
33827;DHT22;20128;45.582;5.298;2023-05-09T00:47:27;18.50;78.10
33827;DHT22;20128;45.582;5.298;2023-05-09T00:49:53;18.50;78.10
33827;DHT22;20128;45.582;5.298;2023-05-09T00:52:18;18.50;78.00
33827;DHT22;20128;45.582;5.298;2023-05-09T00:54:49;18.50;78.10
33827;DHT22;20128;45.582;5.298;2023-05-09T00:57:15;18.40;78.00
33827;DHT22;20128;45.582;5.298;2023-05-09T00:59:40;18.50;77.90
33827;DHT22;20128;45.582;5.298;2023-05-09T01:02:06;18.50;77.70
33827;DHT22;20128;45.582;5.298;2023-05-09T01:04:32;18.50;77.70
33827;DHT22;20128;45.582;5.298;2023-05-09T01:07:32;18.40;77.90
33827;DHT22;20128;45.582;5.298;2023-05-09T01:10:32;18.30;78.10
33827;DHT22;20128;45.582;5.298;2023-05-09T01:13:11;18.30;78.30
33827;DHT22;20128;45.582;5.298;2023-05-09T01:18:46;18.10;79.40
33827;DHT22;20128;45.582;5.298;2023-05-09T01:21:23;18.10;78.90
33827;DHT22;20128;45.582;5.298;2023-05-09T01:27:06;18.20;78.80
33827;DHT22;20128;45.582;5.298;2023-05-09T01:29:43;18.10;78.80
33827;DHT22;20128;45.582;5.298;2023-05-09T01:32:12;18.10;79.00
33827;DHT22;20128;45.582;5.298;2023-05-09T01:34:43;18.00;79.10
33827;DHT22;20128;45.582;5.298;2023-05-09T01:37:10;17.90;79.30
33827;DHT22;20128;45.582;5.298;2023-05-09T01:39:39;17.70;79.50
33827;DHT22;20128;45.582;5.298;2023-05-09T01:42:08;17.60;79.90
33827;DHT22;20128;45.582;5.298;2023-05-09T01:44:38;17.70;79.90
33827;DHT22;20128;45.582;5.298;2023-05-09T01:47:05;17.80;79.60
33827;DHT22;20128;45.582;5.298;2023-05-09T01:49:34;17.90;79.40
33827;DHT22;20128;45.582;5.298;2023-05-09T01:52:03;17.90;79.20
33827;DHT22;20128;45.582;5.298;2023-05-09T01:54:30;17.90;79.10
33827;DHT22;20128;45.582;5.298;2023-05-09T01:56:57;17.90;79.10
33827;DHT22;20128;45.582;5.298;2023-05-09T01:59:24;17.90;79.30
33827;DHT22;20128;45.582;5.298;2023-05-09T02:01:51;17.90;79.40
33827;DHT22;20128;45.582;5.298;2023-05-09T02:04:19;17.80;79.40
33827;DHT22;20128;45.582;5.298;2023-05-09T02:06:47;17.90;80.10
33827;DHT22;20128;45.582;5.298;2023-05-09T02:09:20;17.90;79.30
33827;DHT22;20128;45.582;5.298;2023-05-09T02:11:46;17.90;79.30
33827;DHT22;20128;45.582;5.298;2023-05-09T02:14:12;17.90;79.30
33827;DHT22;20128;45.582;5.298;2023-05-09T02:16:38;17.90;79.30
33827;DHT22;20128;45.582;5.298;2023-05-09T02:19:05;17.80;79.30
33827;DHT22;20128;45.582;5.298;2023-05-09T02:21:30;17.80;79.40
33827;DHT22;20128;45.582;5.298;2023-05-09T02:23:56;17.70;79.60
33827;DHT22;20128;45.582;5.298;2023-05-09T02:26:23;17.60;79.90
33827;DHT22;20128;45.582;5.298;2023-05-09T02:28:50;17.60;80.00
33827;DHT22;20128;45.582;5.298;2023-05-09T02:31:19;17.50;79.80
33827;DHT22;20128;45.582;5.298;2023-05-09T02:33:45;17.50;79.90
33827;DHT22;20128;45.582;5.298;2023-05-09T02:36:16;17.50;79.80
33827;DHT22;20128;45.582;5.298;2023-05-09T02:38:43;17.50;79.60
33827;DHT22;20128;45.582;5.298;2023-05-09T02:41:13;17.50;79.70
33827;DHT22;20128;45.582;5.298;2023-05-09T02:43:39;17.50;79.70
33827;DHT22;20128;45.582;5.298;2023-05-09T02:46:06;17.50;79.70
33827;DHT22;20128;45.582;5.298;2023-05-09T02:48:31;17.50;79.70
33827;DHT22;20128;45.582;5.298;2023-05-09T02:50:57;17.40;79.90
33827;DHT22;20128;45.582;5.298;2023-05-09T02:53:23;17.40;80.00
33827;DHT22;20128;45.582;5.298;2023-05-09T02:55:48;17.30;80.30
33827;DHT22;20128;45.582;5.298;2023-05-09T02:58:15;17.30;80.30
33827;DHT22;20128;45.582;5.298;2023-05-09T03:00:41;17.30;80.90
33827;DHT22;20128;45.582;5.298;2023-05-09T03:03:07;17.30;80.40
33827;DHT22;20128;45.582;5.298;2023-05-09T03:05:33;17.30;80.60
33827;DHT22;20128;45.582;5.298;2023-05-09T03:07:58;17.20;80.60
33827;DHT22;20128;45.582;5.298;2023-05-09T03:10:24;17.30;81.00
33827;DHT22;20128;45.582;5.298;2023-05-09T03:12:49;17.20;80.90
33827;DHT22;20128;45.582;5.298;2023-05-09T03:15:15;17.20;81.00
33827;DHT22;20128;45.582;5.298;2023-05-09T03:17:41;17.10;81.10
33827;DHT22;20128;45.582;5.298;2023-05-09T03:20:07;17.10;81.40
33827;DHT22;20128;45.582;5.298;2023-05-09T03:22:34;16.90;81.70
33827;DHT22;20128;45.582;5.298;2023-05-09T03:25:00;17.00;81.90
33827;DHT22;20128;45.582;5.298;2023-05-09T03:27:26;17.00;81.70
33827;DHT22;20128;45.582;5.298;2023-05-09T03:29:52;17.10;81.80
33827;DHT22;20128;45.582;5.298;2023-05-09T03:32:17;17.00;81.80
33827;DHT22;20128;45.582;5.298;2023-05-09T03:34:43;17.00;82.00
33827;DHT22;20128;45.582;5.298;2023-05-09T03:37:08;16.90;82.20
33827;DHT22;20128;45.582;5.298;2023-05-09T03:39:34;16.90;82.20
33827;DHT22;20128;45.582;5.298;2023-05-09T03:42:00;16.90;82.20
33827;DHT22;20128;45.582;5.298;2023-05-09T03:44:25;17.00;82.20
33827;DHT22;20128;45.582;5.298;2023-05-09T03:46:51;16.90;82.20
33827;DHT22;20128;45.582;5.298;2023-05-09T03:49:17;16.90;82.40
33827;DHT22;20128;45.582;5.298;2023-05-09T03:51:42;16.90;82.50
33827;DHT22;20128;45.582;5.298;2023-05-09T03:54:08;16.90;82.40
33827;DHT22;20128;45.582;5.298;2023-05-09T03:56:33;17.00;82.30
33827;DHT22;20128;45.582;5.298;2023-05-09T03:58:59;17.00;82.20
33827;DHT22;20128;45.582;5.298;2023-05-09T04:01:25;17.00;82.00
33827;DHT22;20128;45.582;5.298;2023-05-09T04:03:51;17.10;82.00
33827;DHT22;20128;45.582;5.298;2023-05-09T04:06:17;17.00;82.10
33827;DHT22;20128;45.582;5.298;2023-05-09T04:08:43;17.10;82.20
33827;DHT22;20128;45.582;5.298;2023-05-09T04:11:09;17.10;82.20
33827;DHT22;20128;45.582;5.298;2023-05-09T04:13:35;17.00;82.30
33827;DHT22;20128;45.582;5.298;2023-05-09T04:16:01;17.00;82.40
33827;DHT22;20128;45.582;5.298;2023-05-09T04:18:27;16.90;82.60
33827;DHT22;20128;45.582;5.298;2023-05-09T04:20:52;16.80;82.70
33827;DHT22;20128;45.582;5.298;2023-05-09T04:23:18;16.70;83.00
33827;DHT22;20128;45.582;5.298;2023-05-09T04:25:44;16.60;83.20
33827;DHT22;20128;45.582;5.298;2023-05-09T04:28:09;16.60;83.60
33827;DHT22;20128;45.582;5.298;2023-05-09T04:30:35;16.60;83.70
33827;DHT22;20128;45.582;5.298;2023-05-09T04:33:01;16.60;83.50
33827;DHT22;20128;45.582;5.298;2023-05-09T04:35:27;16.60;83.70
33827;DHT22;20128;45.582;5.298;2023-05-09T04:37:53;16.60;83.50
33827;DHT22;20128;45.582;5.298;2023-05-09T04:40:19;16.60;83.70
33827;DHT22;20128;45.582;5.298;2023-05-09T04:42:44;16.60;83.70
33827;DHT22;20128;45.582;5.298;2023-05-09T04:45:10;16.40;84.00
33827;DHT22;20128;45.582;5.298;2023-05-09T04:47:36;16.40;84.50
33827;DHT22;20128;45.582;5.298;2023-05-09T04:50:02;16.40;84.50
33827;DHT22;20128;45.582;5.298;2023-05-09T04:52:28;16.30;84.80
33827;DHT22;20128;45.582;5.298;2023-05-09T04:54:54;16.20;85.10
33827;DHT22;20128;45.582;5.298;2023-05-09T04:57:20;16.20;85.40
33827;DHT22;20128;45.582;5.298;2023-05-09T04:59:46;16.30;85.80
33827;DHT22;20128;45.582;5.298;2023-05-09T05:02:12;16.40;86.20
33827;DHT22;20128;45.582;5.298;2023-05-09T05:04:37;16.50;85.70
33827;DHT22;20128;45.582;5.298;2023-05-09T05:07:03;16.60;85.40
33827;DHT22;20128;45.582;5.298;2023-05-09T05:09:29;16.70;85.50
33827;DHT22;20128;45.582;5.298;2023-05-09T05:11:55;16.90;85.50
33827;DHT22;20128;45.582;5.298;2023-05-09T05:14:21;17.10;84.90
33827;DHT22;20128;45.582;5.298;2023-05-09T05:16:46;17.20;84.30
33827;DHT22;20128;45.582;5.298;2023-05-09T05:19:12;17.30;84.00
33827;DHT22;20128;45.582;5.298;2023-05-09T05:21:38;17.40;83.50
33827;DHT22;20128;45.582;5.298;2023-05-09T05:24:03;17.60;82.90
33827;DHT22;20128;45.582;5.298;2023-05-09T05:26:29;17.60;82.30
33827;DHT22;20128;45.582;5.298;2023-05-09T05:28:55;17.70;82.30
33827;DHT22;20128;45.582;5.298;2023-05-09T05:31:21;17.70;82.10
33827;DHT22;20128;45.582;5.298;2023-05-09T05:33:47;17.70;82.20
33827;DHT22;20128;45.582;5.298;2023-05-09T05:36:12;17.50;82.00
33827;DHT22;20128;45.582;5.298;2023-05-09T05:38:38;17.50;82.40
33827;DHT22;20128;45.582;5.298;2023-05-09T05:41:04;17.40;82.50
33827;DHT22;20128;45.582;5.298;2023-05-09T05:43:30;17.30;82.60
33827;DHT22;20128;45.582;5.298;2023-05-09T05:45:55;17.10;82.80
33827;DHT22;20128;45.582;5.298;2023-05-09T05:48:21;16.90;83.10
33827;DHT22;20128;45.582;5.298;2023-05-09T05:50:47;16.90;83.90
33827;DHT22;20128;45.582;5.298;2023-05-09T05:53:12;17.00;84.00
33827;DHT22;20128;45.582;5.298;2023-05-09T05:55:38;17.10;83.70
33827;DHT22;20128;45.582;5.298;2023-05-09T05:58:04;17.20;83.60
33827;DHT22;20128;45.582;5.298;2023-05-09T06:00:29;17.20;83.40
33827;DHT22;20128;45.582;5.298;2023-05-09T06:02:55;17.30;83.60
33827;DHT22;20128;45.582;5.298;2023-05-09T06:05:21;17.30;83.60
33827;DHT22;20128;45.582;5.298;2023-05-09T06:07:46;17.30;83.70
33827;DHT22;20128;45.582;5.298;2023-05-09T06:10:12;17.30;83.80
33827;DHT22;20128;45.582;5.298;2023-05-09T06:12:40;17.20;83.90
33827;DHT22;20128;45.582;5.298;2023-05-09T06:15:06;17.10;84.20
33827;DHT22;20128;45.582;5.298;2023-05-09T06:17:32;17.00;84.60
33827;DHT22;20128;45.582;5.298;2023-05-09T06:19:58;17.00;84.80
33827;DHT22;20128;45.582;5.298;2023-05-09T06:22:23;17.00;85.00
33827;DHT22;20128;45.582;5.298;2023-05-09T06:24:49;17.10;85.10
33827;DHT22;20128;45.582;5.298;2023-05-09T06:27:15;17.10;85.10
33827;DHT22;20128;45.582;5.298;2023-05-09T06:29:40;17.10;85.20
33827;DHT22;20128;45.582;5.298;2023-05-09T06:32:06;17.20;85.40
33827;DHT22;20128;45.582;5.298;2023-05-09T06:34:32;17.20;85.40
33827;DHT22;20128;45.582;5.298;2023-05-09T06:36:57;17.20;85.60
33827;DHT22;20128;45.582;5.298;2023-05-09T06:39:23;17.20;85.50
33827;DHT22;20128;45.582;5.298;2023-05-09T06:41:48;17.30;85.60
33827;DHT22;20128;45.582;5.298;2023-05-09T06:44:14;17.30;85.40
33827;DHT22;20128;45.582;5.298;2023-05-09T06:46:40;17.30;85.60
33827;DHT22;20128;45.582;5.298;2023-05-09T06:49:05;17.30;85.40
33827;DHT22;20128;45.582;5.298;2023-05-09T06:51:31;17.30;85.40
33827;DHT22;20128;45.582;5.298;2023-05-09T06:53:57;17.20;85.50
33827;DHT22;20128;45.582;5.298;2023-05-09T06:56:23;17.20;85.80
33827;DHT22;20128;45.582;5.298;2023-05-09T06:58:49;17.20;86.00
33827;DHT22;20128;45.582;5.298;2023-05-09T07:01:15;17.30;86.30
33827;DHT22;20128;45.582;5.298;2023-05-09T07:03:42;17.40;86.20
33827;DHT22;20128;45.582;5.298;2023-05-09T07:06:07;17.40;86.00
33827;DHT22;20128;45.582;5.298;2023-05-09T07:08:33;17.50;85.80
33827;DHT22;20128;45.582;5.298;2023-05-09T07:10:58;17.50;85.70
33827;DHT22;20128;45.582;5.298;2023-05-09T07:13:24;17.60;85.60
33827;DHT22;20128;45.582;5.298;2023-05-09T07:15:50;17.70;85.40
33827;DHT22;20128;45.582;5.298;2023-05-09T07:18:15;17.70;85.20
33827;DHT22;20128;45.582;5.298;2023-05-09T07:20:41;17.60;85.70
33827;DHT22;20128;45.582;5.298;2023-05-09T07:23:07;17.70;84.90
33827;DHT22;20128;45.582;5.298;2023-05-09T07:25:32;17.80;84.50
33827;DHT22;20128;45.582;5.298;2023-05-09T07:27:58;17.80;84.00
33827;DHT22;20128;45.582;5.298;2023-05-09T07:30:24;17.80;83.90
33827;DHT22;20128;45.582;5.298;2023-05-09T07:32:49;17.80;83.80
33827;DHT22;20128;45.582;5.298;2023-05-09T07:35:16;18.00;83.70
33827;DHT22;20128;45.582;5.298;2023-05-09T07:37:42;18.10;83.40
33827;DHT22;20128;45.582;5.298;2023-05-09T07:40:08;18.20;83.40
33827;DHT22;20128;45.582;5.298;2023-05-09T07:42:34;18.30;83.40
33827;DHT22;20128;45.582;5.298;2023-05-09T07:45:00;18.30;83.00
33827;DHT22;20128;45.582;5.298;2023-05-09T07:47:26;18.50;82.80
33827;DHT22;20128;45.582;5.298;2023-05-09T07:49:52;18.60;82.00
33827;DHT22;20128;45.582;5.298;2023-05-09T07:52:18;18.70;81.60
33827;DHT22;20128;45.582;5.298;2023-05-09T07:54:43;18.70;81.40
33827;DHT22;20128;45.582;5.298;2023-05-09T07:57:09;18.80;81.40
33827;DHT22;20128;45.582;5.298;2023-05-09T07:59:35;18.80;81.00
33827;DHT22;20128;45.582;5.298;2023-05-09T08:02:01;18.90;80.20
33827;DHT22;20128;45.582;5.298;2023-05-09T08:04:27;18.90;80.00
33827;DHT22;20128;45.582;5.298;2023-05-09T08:06:53;19.10;80.30
33827;DHT22;20128;45.582;5.298;2023-05-09T08:09:18;19.20;80.30
33827;DHT22;20128;45.582;5.298;2023-05-09T08:11:45;19.30;80.10
33827;DHT22;20128;45.582;5.298;2023-05-09T08:14:11;19.40;80.00
33827;DHT22;20128;45.582;5.298;2023-05-09T08:16:37;19.50;79.30
33827;DHT22;20128;45.582;5.298;2023-05-09T08:19:02;19.60;79.20
33827;DHT22;20128;45.582;5.298;2023-05-09T08:21:28;19.70;77.50
33827;DHT22;20128;45.582;5.298;2023-05-09T08:23:54;19.70;77.60
33827;DHT22;20128;45.582;5.298;2023-05-09T08:26:20;19.80;77.00
33827;DHT22;20128;45.582;5.298;2023-05-09T08:28:47;19.90;76.90
33827;DHT22;20128;45.582;5.298;2023-05-09T08:31:12;20.00;76.60
33827;DHT22;20128;45.582;5.298;2023-05-09T08:33:38;20.10;76.00
33827;DHT22;20128;45.582;5.298;2023-05-09T08:36:04;20.20;76.10
33827;DHT22;20128;45.582;5.298;2023-05-09T08:38:29;20.40;75.30
33827;DHT22;20128;45.582;5.298;2023-05-09T08:40:59;20.50;73.90
33827;DHT22;20128;45.582;5.298;2023-05-09T08:43:27;20.50;74.20
33827;DHT22;20128;45.582;5.298;2023-05-09T08:46:02;20.60;74.30
33827;DHT22;20128;45.582;5.298;2023-05-09T08:48:30;20.70;73.30
33827;DHT22;20128;45.582;5.298;2023-05-09T08:50:56;20.70;73.40
33827;DHT22;20128;45.582;5.298;2023-05-09T08:53:22;20.80;72.80
33827;DHT22;20128;45.582;5.298;2023-05-09T08:55:49;20.80;72.80
33827;DHT22;20128;45.582;5.298;2023-05-09T08:58:18;20.80;73.00
33827;DHT22;20128;45.582;5.298;2023-05-09T09:00:45;20.90;73.20
33827;DHT22;20128;45.582;5.298;2023-05-09T09:03:11;20.90;72.90
33827;DHT22;20128;45.582;5.298;2023-05-09T09:05:37;21.10;72.60
33827;DHT22;20128;45.582;5.298;2023-05-09T09:08:06;21.10;72.40
33827;DHT22;20128;45.582;5.298;2023-05-09T09:10:32;21.30;72.00
33827;DHT22;20128;45.582;5.298;2023-05-09T09:12:59;21.40;71.90
33827;DHT22;20128;45.582;5.298;2023-05-09T09:15:28;21.50;71.00
33827;DHT22;20128;45.582;5.298;2023-05-09T09:17:55;21.60;71.40
33827;DHT22;20128;45.582;5.298;2023-05-09T09:20:25;21.80;70.90
33827;DHT22;20128;45.582;5.298;2023-05-09T09:22:56;21.90;70.70
33827;DHT22;20128;45.582;5.298;2023-05-09T09:25:24;22.00;70.90
33827;DHT22;20128;45.582;5.298;2023-05-09T09:27:50;22.10;70.30
33827;DHT22;20128;45.582;5.298;2023-05-09T09:30:16;22.20;69.50
33827;DHT22;20128;45.582;5.298;2023-05-09T09:32:41;22.30;68.50
33827;DHT22;20128;45.582;5.298;2023-05-09T09:35:10;22.40;68.60
33827;DHT22;20128;45.582;5.298;2023-05-09T09:37:38;22.50;68.50
33827;DHT22;20128;45.582;5.298;2023-05-09T09:40:11;22.60;68.40
33827;DHT22;20128;45.582;5.298;2023-05-09T09:42:44;22.70;68.30
33827;DHT22;20128;45.582;5.298;2023-05-09T09:47:36;22.90;67.60
33827;DHT22;20128;45.582;5.298;2023-05-09T09:50:15;22.90;67.30
33827;DHT22;20128;45.582;5.298;2023-05-09T09:53:02;23.00;67.50
33827;DHT22;20128;45.582;5.298;2023-05-09T09:55:28;23.00;67.40
33827;DHT22;20128;45.582;5.298;2023-05-09T09:57:54;23.10;67.10
33827;DHT22;20128;45.582;5.298;2023-05-09T10:00:28;23.20;66.00
33827;DHT22;20128;45.582;5.298;2023-05-09T10:02:56;23.20;66.20
33827;DHT22;20128;45.582;5.298;2023-05-09T10:05:27;23.20;66.40
33827;DHT22;20128;45.582;5.298;2023-05-09T10:07:58;23.20;65.90
33827;DHT22;20128;45.582;5.298;2023-05-09T10:10:29;23.20;64.90
33827;DHT22;20128;45.582;5.298;2023-05-09T10:12:57;23.20;65.30
33827;DHT22;20128;45.582;5.298;2023-05-09T10:15:23;23.20;65.20
33827;DHT22;20128;45.582;5.298;2023-05-09T10:17:55;23.20;65.50
33827;DHT22;20128;45.582;5.298;2023-05-09T10:20:21;23.10;65.20
33827;DHT22;20128;45.582;5.298;2023-05-09T10:22:48;23.20;65.50
33827;DHT22;20128;45.582;5.298;2023-05-09T10:25:21;23.20;65.40
33827;DHT22;20128;45.582;5.298;2023-05-09T10:27:53;23.20;66.00
33827;DHT22;20128;45.582;5.298;2023-05-09T10:30:30;23.20;65.30
33827;DHT22;20128;45.582;5.298;2023-05-09T10:33:08;23.20;65.40
33827;DHT22;20128;45.582;5.298;2023-05-09T10:35:38;23.10;65.40
33827;DHT22;20128;45.582;5.298;2023-05-09T10:38:06;23.10;65.90
33827;DHT22;20128;45.582;5.298;2023-05-09T10:40:33;23.00;65.00
33827;DHT22;20128;45.582;5.298;2023-05-09T10:42:58;23.00;65.30
33827;DHT22;20128;45.582;5.298;2023-05-09T10:45:24;23.00;65.70
33827;DHT22;20128;45.582;5.298;2023-05-09T10:47:51;23.00;65.70
33827;DHT22;20128;45.582;5.298;2023-05-09T10:50:18;23.00;66.30
33827;DHT22;20128;45.582;5.298;2023-05-09T10:58:29;23.00;66.40
33827;DHT22;20128;45.582;5.298;2023-05-09T11:00:59;23.00;66.50
33827;DHT22;20128;45.582;5.298;2023-05-09T11:03:27;23.00;66.60
33827;DHT22;20128;45.582;5.298;2023-05-09T11:05:56;23.00;66.80
33827;DHT22;20128;45.582;5.298;2023-05-09T11:08:29;22.90;66.70
33827;DHT22;20128;45.582;5.298;2023-05-09T11:10:57;22.90;66.80
33827;DHT22;20128;45.582;5.298;2023-05-09T11:13:29;22.90;66.90
33827;DHT22;20128;45.582;5.298;2023-05-09T11:18:30;22.90;67.20
33827;DHT22;20128;45.582;5.298;2023-05-09T11:20:57;22.80;68.00
33827;DHT22;20128;45.582;5.298;2023-05-09T11:23:28;22.80;66.60
33827;DHT22;20128;45.582;5.298;2023-05-09T11:26:03;22.70;66.40
33827;DHT22;20128;45.582;5.298;2023-05-09T11:28:32;22.70;66.30
33827;DHT22;20128;45.582;5.298;2023-05-09T11:31:17;22.70;67.10
33827;DHT22;20128;45.582;5.298;2023-05-09T11:33:45;22.70;67.80
33827;DHT22;20128;45.582;5.298;2023-05-09T11:36:19;22.70;67.60
33827;DHT22;20128;45.582;5.298;2023-05-09T11:38:45;22.60;67.80
33827;DHT22;20128;45.582;5.298;2023-05-09T11:41:12;22.60;68.00
33827;DHT22;20128;45.582;5.298;2023-05-09T11:43:38;22.70;68.30
33827;DHT22;20128;45.582;5.298;2023-05-09T11:46:04;22.70;68.60
33827;DHT22;20128;45.582;5.298;2023-05-09T11:48:30;22.70;69.30
33827;DHT22;20128;45.582;5.298;2023-05-09T11:51:01;22.70;67.40
33827;DHT22;20128;45.582;5.298;2023-05-09T11:53:28;22.70;68.00
33827;DHT22;20128;45.582;5.298;2023-05-09T11:55:54;22.70;67.90
33827;DHT22;20128;45.582;5.298;2023-05-09T11:58:19;22.60;68.50
33827;DHT22;20128;45.582;5.298;2023-05-09T12:00:45;22.60;68.40
33827;DHT22;20128;45.582;5.298;2023-05-09T12:03:11;22.60;69.10
33827;DHT22;20128;45.582;5.298;2023-05-09T12:05:37;22.60;68.60
33827;DHT22;20128;45.582;5.298;2023-05-09T12:08:07;22.60;67.70
33827;DHT22;20128;45.582;5.298;2023-05-09T12:10:36;22.50;67.90
33827;DHT22;20128;45.582;5.298;2023-05-09T12:13:02;22.50;67.80
33827;DHT22;20128;45.582;5.298;2023-05-09T12:15:28;22.50;67.90
33827;DHT22;20128;45.582;5.298;2023-05-09T12:18:05;22.40;68.10
33827;DHT22;20128;45.582;5.298;2023-05-09T12:20:41;22.40;68.20
33827;DHT22;20128;45.582;5.298;2023-05-09T12:23:08;22.40;67.80
33827;DHT22;20128;45.582;5.298;2023-05-09T12:25:34;22.40;67.50
33827;DHT22;20128;45.582;5.298;2023-05-09T12:28:00;22.40;67.20
33827;DHT22;20128;45.582;5.298;2023-05-09T12:30:26;22.40;67.40
33827;DHT22;20128;45.582;5.298;2023-05-09T12:32:52;22.40;67.60
33827;DHT22;20128;45.582;5.298;2023-05-09T12:35:20;22.40;66.50
33827;DHT22;20128;45.582;5.298;2023-05-09T12:37:57;22.40;67.10
33827;DHT22;20128;45.582;5.298;2023-05-09T12:40:23;22.40;67.10
33827;DHT22;20128;45.582;5.298;2023-05-09T12:42:49;22.40;66.30
33827;DHT22;20128;45.582;5.298;2023-05-09T12:45:18;22.40;67.20
33827;DHT22;20128;45.582;5.298;2023-05-09T12:47:44;22.30;66.80
33827;DHT22;20128;45.582;5.298;2023-05-09T12:50:10;22.20;68.10
33827;DHT22;20128;45.582;5.298;2023-05-09T12:52:40;22.20;68.60
33827;DHT22;20128;45.582;5.298;2023-05-09T12:55:12;22.10;68.60
33827;DHT22;20128;45.582;5.298;2023-05-09T12:57:39;22.00;68.40
33827;DHT22;20128;45.582;5.298;2023-05-09T13:00:06;21.90;68.60
33827;DHT22;20128;45.582;5.298;2023-05-09T13:02:35;21.90;69.10
33827;DHT22;20128;45.582;5.298;2023-05-09T13:05:11;21.90;69.70
33827;DHT22;20128;45.582;5.298;2023-05-09T13:07:47;21.90;69.40
33827;DHT22;20128;45.582;5.298;2023-05-09T13:10:15;21.80;70.20
33827;DHT22;20128;45.582;5.298;2023-05-09T13:12:42;21.90;70.30
33827;DHT22;20128;45.582;5.298;2023-05-09T13:15:14;21.80;70.20
33827;DHT22;20128;45.582;5.298;2023-05-09T13:17:40;21.80;70.80
33827;DHT22;20128;45.582;5.298;2023-05-09T13:20:07;21.80;71.00
33827;DHT22;20128;45.582;5.298;2023-05-09T13:22:33;21.80;71.50
33827;DHT22;20128;45.582;5.298;2023-05-09T13:24:59;21.70;71.80
33827;DHT22;20128;45.582;5.298;2023-05-09T13:27:24;21.70;71.90
33827;DHT22;20128;45.582;5.298;2023-05-09T13:29:52;21.70;73.10
33827;DHT22;20128;45.582;5.298;2023-05-09T13:32:18;21.70;73.60
33827;DHT22;20128;45.582;5.298;2023-05-09T13:34:43;21.70;73.20
33827;DHT22;20128;45.582;5.298;2023-05-09T13:37:09;21.60;73.30
33827;DHT22;20128;45.582;5.298;2023-05-09T13:39:35;21.60;73.90
33827;DHT22;20128;45.582;5.298;2023-05-09T13:42:00;21.40;74.20
33827;DHT22;20128;45.582;5.298;2023-05-09T13:44:26;21.40;74.00
33827;DHT22;20128;45.582;5.298;2023-05-09T13:46:53;21.30;73.60
33827;DHT22;20128;45.582;5.298;2023-05-09T13:49:19;21.30;74.00
33827;DHT22;20128;45.582;5.298;2023-05-09T13:51:44;21.30;74.70
33827;DHT22;20128;45.582;5.298;2023-05-09T13:54:10;21.30;75.80
33827;DHT22;20128;45.582;5.298;2023-05-09T13:56:41;21.20;74.30
33827;DHT22;20128;45.582;5.298;2023-05-09T13:59:07;21.20;73.60
33827;DHT22;20128;45.582;5.298;2023-05-09T14:01:33;21.10;73.00
33827;DHT22;20128;45.582;5.298;2023-05-09T14:03:59;21.10;74.90
33827;DHT22;20128;45.582;5.298;2023-05-09T14:06:25;21.00;76.10
33827;DHT22;20128;45.582;5.298;2023-05-09T14:08:51;21.10;76.10
33827;DHT22;20128;45.582;5.298;2023-05-09T14:11:17;21.00;75.50
33827;DHT22;20128;45.582;5.298;2023-05-09T14:13:43;20.90;74.40
33827;DHT22;20128;45.582;5.298;2023-05-09T14:16:08;20.80;74.70
33827;DHT22;20128;45.582;5.298;2023-05-09T14:18:34;20.90;74.80
33827;DHT22;20128;45.582;5.298;2023-05-09T14:21:00;20.90;75.00
33827;DHT22;20128;45.582;5.298;2023-05-09T14:23:26;20.90;75.40
33827;DHT22;20128;45.582;5.298;2023-05-09T14:25:51;20.90;75.60
33827;DHT22;20128;45.582;5.298;2023-05-09T14:28:17;20.90;75.70
33827;DHT22;20128;45.582;5.298;2023-05-09T14:30:43;20.90;75.80
33827;DHT22;20128;45.582;5.298;2023-05-09T14:33:09;20.90;75.60
33827;DHT22;20128;45.582;5.298;2023-05-09T14:35:34;20.90;75.60
33827;DHT22;20128;45.582;5.298;2023-05-09T14:38:00;20.80;75.30
33827;DHT22;20128;45.582;5.298;2023-05-09T14:40:26;20.70;75.40
33827;DHT22;20128;45.582;5.298;2023-05-09T14:42:58;20.70;75.70
33827;DHT22;20128;45.582;5.298;2023-05-09T14:45:30;20.60;74.60
33827;DHT22;20128;45.582;5.298;2023-05-09T14:47:57;20.60;75.20
33827;DHT22;20128;45.582;5.298;2023-05-09T14:50:23;20.60;75.40
33827;DHT22;20128;45.582;5.298;2023-05-09T14:52:49;20.50;76.00
33827;DHT22;20128;45.582;5.298;2023-05-09T14:55:16;20.50;75.90
33827;DHT22;20128;45.582;5.298;2023-05-09T14:57:42;20.40;76.30
33827;DHT22;20128;45.582;5.298;2023-05-09T15:00:08;20.50;76.70
33827;DHT22;20128;45.582;5.298;2023-05-09T15:02:35;20.40;76.30
33827;DHT22;20128;45.582;5.298;2023-05-09T15:05:01;20.40;76.40
33827;DHT22;20128;45.582;5.298;2023-05-09T15:07:27;20.40;76.90
33827;DHT22;20128;45.582;5.298;2023-05-09T15:09:53;20.30;76.90
33827;DHT22;20128;45.582;5.298;2023-05-09T15:12:19;20.30;77.20
33827;DHT22;20128;45.582;5.298;2023-05-09T15:14:44;20.30;77.50
33827;DHT22;20128;45.582;5.298;2023-05-09T15:17:10;20.30;77.80
33827;DHT22;20128;45.582;5.298;2023-05-09T15:19:36;20.20;77.80
33827;DHT22;20128;45.582;5.298;2023-05-09T15:22:02;20.20;77.80
33827;DHT22;20128;45.582;5.298;2023-05-09T15:24:29;20.20;77.30
33827;DHT22;20128;45.582;5.298;2023-05-09T15:26:54;20.20;77.70
33827;DHT22;20128;45.582;5.298;2023-05-09T15:29:20;20.20;78.10
33827;DHT22;20128;45.582;5.298;2023-05-09T15:31:46;20.20;78.10
33827;DHT22;20128;45.582;5.298;2023-05-09T15:34:12;20.20;78.20
33827;DHT22;20128;45.582;5.298;2023-05-09T15:36:38;20.10;78.70
33827;DHT22;20128;45.582;5.298;2023-05-09T15:39:04;20.10;79.00
33827;DHT22;20128;45.582;5.298;2023-05-09T15:41:29;20.10;79.20
33827;DHT22;20128;45.582;5.298;2023-05-09T15:43:56;20.20;79.50
33827;DHT22;20128;45.582;5.298;2023-05-09T15:46:22;20.20;79.20